sensor_id;sensor_type;location;lat;lon;timestamp;P1;durP1;ratioP1;P2;durP2;ratioP2
31990;SDS011;18508;49.386;8.370;2022-09-03T00:00:50;3.10;;;1.50;;
31990;SDS011;18508;49.386;8.370;2022-09-03T00:03:22;4.18;;;1.48;;
31990;SDS011;18508;49.386;8.370;2022-09-03T00:06:00;6.15;;;1.40;;
31990;SDS011;18508;49.386;8.370;2022-09-03T00:08:37;3.10;;;1.50;;
31990;SDS011;18508;49.386;8.370;2022-09-03T00:11:11;3.85;;;1.20;;
31990;SDS011;18508;49.386;8.370;2022-09-03T00:13:46;3.78;;;1.48;;
31990;SDS011;18508;49.386;8.370;2022-09-03T00:16:22;6.25;;;1.95;;
31990;SDS011;18508;49.386;8.370;2022-09-03T00:18:53;5.35;;;2.35;;
31990;SDS011;18508;49.386;8.370;2022-09-03T00:21:28;3.95;;;2.45;;
31990;SDS011;18508;49.386;8.370;2022-09-03T00:24:03;7.18;;;2.20;;
31990;SDS011;18508;49.386;8.370;2022-09-03T00:26:41;4.40;;;2.42;;
31990;SDS011;18508;49.386;8.370;2022-09-03T00:29:12;6.80;;;2.35;;
31990;SDS011;18508;49.386;8.370;2022-09-03T00:31:45;7.07;;;2.28;;
31990;SDS011;18508;49.386;8.370;2022-09-03T00:34:19;8.13;;;2.38;;
31990;SDS011;18508;49.386;8.370;2022-09-03T00:36:52;4.85;;;2.17;;
31990;SDS011;18508;49.386;8.370;2022-09-03T00:39:21;6.70;;;2.10;;
31990;SDS011;18508;49.386;8.370;2022-09-03T00:42:00;4.32;;;1.70;;
31990;SDS011;18508;49.386;8.370;2022-09-03T00:44:54;4.70;;;1.73;;
31990;SDS011;18508;49.386;8.370;2022-09-03T00:48:01;7.47;;;2.13;;
31990;SDS011;18508;49.386;8.370;2022-09-03T00:50:40;2.38;;;1.38;;
31990;SDS011;18508;49.386;8.370;2022-09-03T00:53:22;2.63;;;1.48;;
31990;SDS011;18508;49.386;8.370;2022-09-03T00:56:03;3.05;;;1.48;;
31990;SDS011;18508;49.386;8.370;2022-09-03T00:58:45;3.83;;;1.85;;
31990;SDS011;18508;49.386;8.370;2022-09-03T01:01:23;3.58;;;1.40;;
31990;SDS011;18508;49.386;8.370;2022-09-03T01:04:01;3.13;;;1.40;;
31990;SDS011;18508;49.386;8.370;2022-09-03T01:06:44;3.50;;;1.30;;
31990;SDS011;18508;49.386;8.370;2022-09-03T01:09:23;5.10;;;1.50;;
31990;SDS011;18508;49.386;8.370;2022-09-03T01:12:10;3.35;;;1.40;;
31990;SDS011;18508;49.386;8.370;2022-09-03T01:14:50;3.67;;;1.45;;
31990;SDS011;18508;49.386;8.370;2022-09-03T01:17:29;3.17;;;1.48;;
31990;SDS011;18508;49.386;8.370;2022-09-03T01:20:22;2.60;;;1.50;;
31990;SDS011;18508;49.386;8.370;2022-09-03T01:26:35;2.15;;;1.30;;
31990;SDS011;18508;49.386;8.370;2022-09-03T01:32:35;3.78;;;1.52;;
31990;SDS011;18508;49.386;8.370;2022-09-03T01:35:19;3.03;;;1.42;;
31990;SDS011;18508;49.386;8.370;2022-09-03T01:38:09;4.03;;;1.33;;
31990;SDS011;18508;49.386;8.370;2022-09-03T01:40:49;2.38;;;1.17;;
31990;SDS011;18508;49.386;8.370;2022-09-03T01:43:53;5.03;;;1.30;;
31990;SDS011;18508;49.386;8.370;2022-09-03T01:46:34;3.45;;;1.63;;
31990;SDS011;18508;49.386;8.370;2022-09-03T01:49:12;2.25;;;1.30;;
31990;SDS011;18508;49.386;8.370;2022-09-03T01:51:49;13.70;;;2.00;;
31990;SDS011;18508;49.386;8.370;2022-09-03T01:54:37;3.40;;;1.27;;
31990;SDS011;18508;49.386;8.370;2022-09-03T01:57:22;4.57;;;1.35;;
31990;SDS011;18508;49.386;8.370;2022-09-03T02:00:14;3.90;;;1.48;;
31990;SDS011;18508;49.386;8.370;2022-09-03T02:02:47;3.40;;;1.20;;
31990;SDS011;18508;49.386;8.370;2022-09-03T02:05:19;4.18;;;1.52;;
31990;SDS011;18508;49.386;8.370;2022-09-03T02:07:50;2.78;;;1.20;;
31990;SDS011;18508;49.386;8.370;2022-09-03T02:10:25;4.40;;;1.58;;
31990;SDS011;18508;49.386;8.370;2022-09-03T02:13:00;4.03;;;1.70;;
31990;SDS011;18508;49.386;8.370;2022-09-03T02:15:31;5.60;;;1.50;;
31990;SDS011;18508;49.386;8.370;2022-09-03T02:18:04;4.38;;;1.48;;
31990;SDS011;18508;49.386;8.370;2022-09-03T02:20:37;9.82;;;2.85;;
31990;SDS011;18508;49.386;8.370;2022-09-03T02:23:06;9.32;;;2.80;;
31990;SDS011;18508;49.386;8.370;2022-09-03T02:25:37;6.65;;;2.00;;
31990;SDS011;18508;49.386;8.370;2022-09-03T02:28:08;2.45;;;1.33;;
31990;SDS011;18508;49.386;8.370;2022-09-03T02:30:43;5.40;;;1.30;;
31990;SDS011;18508;49.386;8.370;2022-09-03T02:33:13;4.35;;;1.50;;
31990;SDS011;18508;49.386;8.370;2022-09-03T02:35:42;9.45;;;2.35;;
31990;SDS011;18508;49.386;8.370;2022-09-03T02:38:12;7.80;;;2.03;;
31990;SDS011;18508;49.386;8.370;2022-09-03T02:40:45;9.23;;;2.08;;
31990;SDS011;18508;49.386;8.370;2022-09-03T02:43:17;14.27;;;2.78;;
31990;SDS011;18508;49.386;8.370;2022-09-03T02:46:00;8.32;;;2.65;;
31990;SDS011;18508;49.386;8.370;2022-09-03T02:51:02;12.80;;;2.65;;
31990;SDS011;18508;49.386;8.370;2022-09-03T02:53:40;7.85;;;2.28;;
31990;SDS011;18508;49.386;8.370;2022-09-03T02:56:11;3.38;;;1.70;;
31990;SDS011;18508;49.386;8.370;2022-09-03T02:58:39;4.68;;;1.75;;
31990;SDS011;18508;49.386;8.370;2022-09-03T03:01:17;3.22;;;1.35;;
31990;SDS011;18508;49.386;8.370;2022-09-03T03:03:50;3.03;;;1.48;;
31990;SDS011;18508;49.386;8.370;2022-09-03T03:06:19;3.10;;;1.80;;
31990;SDS011;18508;49.386;8.370;2022-09-03T03:08:50;1.98;;;1.27;;
31990;SDS011;18508;49.386;8.370;2022-09-03T03:11:22;4.00;;;1.60;;
31990;SDS011;18508;49.386;8.370;2022-09-03T03:13:52;5.20;;;1.42;;
31990;SDS011;18508;49.386;8.370;2022-09-03T03:16:23;3.47;;;1.30;;
31990;SDS011;18508;49.386;8.370;2022-09-03T03:18:56;3.05;;;1.38;;
31990;SDS011;18508;49.386;8.370;2022-09-03T03:21:26;2.88;;;1.30;;
31990;SDS011;18508;49.386;8.370;2022-09-03T03:23:56;4.75;;;1.38;;
31990;SDS011;18508;49.386;8.370;2022-09-03T03:26:27;4.38;;;1.42;;
31990;SDS011;18508;49.386;8.370;2022-09-03T03:28:57;2.05;;;1.20;;
31990;SDS011;18508;49.386;8.370;2022-09-03T03:31:30;2.13;;;1.17;;
31990;SDS011;18508;49.386;8.370;2022-09-03T03:34:02;2.75;;;1.30;;
31990;SDS011;18508;49.386;8.370;2022-09-03T03:36:31;3.58;;;1.35;;
31990;SDS011;18508;49.386;8.370;2022-09-03T03:39:00;1.70;;;1.23;;
31990;SDS011;18508;49.386;8.370;2022-09-03T03:41:36;2.35;;;1.33;;
31990;SDS011;18508;49.386;8.370;2022-09-03T03:44:06;5.43;;;1.95;;
31990;SDS011;18508;49.386;8.370;2022-09-03T03:46:37;4.97;;;1.10;;
31990;SDS011;18508;49.386;8.370;2022-09-03T03:49:08;4.93;;;1.25;;
31990;SDS011;18508;49.386;8.370;2022-09-03T03:51:37;2.55;;;0.98;;
31990;SDS011;18508;49.386;8.370;2022-09-03T03:54:06;2.97;;;1.35;;
31990;SDS011;18508;49.386;8.370;2022-09-03T03:56:41;3.10;;;1.30;;
31990;SDS011;18508;49.386;8.370;2022-09-03T03:59:12;4.72;;;1.20;;
31990;SDS011;18508;49.386;8.370;2022-09-03T04:01:40;2.90;;;1.55;;
31990;SDS011;18508;49.386;8.370;2022-09-03T04:04:10;4.10;;;1.45;;
31990;SDS011;18508;49.386;8.370;2022-09-03T04:06:40;3.25;;;1.05;;
31990;SDS011;18508;49.386;8.370;2022-09-03T04:09:08;2.10;;;1.33;;
31990;SDS011;18508;49.386;8.370;2022-09-03T04:11:42;3.05;;;1.40;;
31990;SDS011;18508;49.386;8.370;2022-09-03T04:14:14;3.70;;;1.70;;
31990;SDS011;18508;49.386;8.370;2022-09-03T04:16:45;3.00;;;1.55;;
31990;SDS011;18508;49.386;8.370;2022-09-03T04:19:16;5.00;;;1.60;;
31990;SDS011;18508;49.386;8.370;2022-09-03T04:21:53;3.88;;;1.42;;
31990;SDS011;18508;49.386;8.370;2022-09-03T04:24:25;2.53;;;1.67;;
31990;SDS011;18508;49.386;8.370;2022-09-03T04:26:54;4.53;;;1.80;;
31990;SDS011;18508;49.386;8.370;2022-09-03T04:29:23;4.13;;;1.85;;
31990;SDS011;18508;49.386;8.370;2022-09-03T04:31:56;2.05;;;1.27;;
31990;SDS011;18508;49.386;8.370;2022-09-03T04:34:43;6.53;;;2.22;;
31990;SDS011;18508;49.386;8.370;2022-09-03T04:37:14;2.33;;;1.38;;
31990;SDS011;18508;49.386;8.370;2022-09-03T04:39:45;3.55;;;1.48;;
31990;SDS011;18508;49.386;8.370;2022-09-03T04:42:15;3.38;;;1.73;;
31990;SDS011;18508;49.386;8.370;2022-09-03T04:44:44;5.13;;;2.05;;
31990;SDS011;18508;49.386;8.370;2022-09-03T04:47:13;2.65;;;1.67;;
31990;SDS011;18508;49.386;8.370;2022-09-03T04:49:43;4.38;;;1.73;;
31990;SDS011;18508;49.386;8.370;2022-09-03T04:52:12;7.95;;;1.90;;
31990;SDS011;18508;49.386;8.370;2022-09-03T04:54:43;3.08;;;1.90;;
31990;SDS011;18508;49.386;8.370;2022-09-03T04:57:13;4.43;;;1.70;;
31990;SDS011;18508;49.386;8.370;2022-09-03T04:59:43;2.80;;;1.45;;
31990;SDS011;18508;49.386;8.370;2022-09-03T05:02:11;2.47;;;1.70;;
31990;SDS011;18508;49.386;8.370;2022-09-03T05:04:41;2.85;;;1.73;;
31990;SDS011;18508;49.386;8.370;2022-09-03T05:07:11;2.63;;;1.42;;
31990;SDS011;18508;49.386;8.370;2022-09-03T05:09:45;6.50;;;1.52;;
31990;SDS011;18508;49.386;8.370;2022-09-03T05:12:13;3.08;;;1.60;;
31990;SDS011;18508;49.386;8.370;2022-09-03T05:14:45;3.33;;;1.55;;
31990;SDS011;18508;49.386;8.370;2022-09-03T05:17:15;5.18;;;1.80;;
31990;SDS011;18508;49.386;8.370;2022-09-03T05:19:45;4.40;;;1.55;;
31990;SDS011;18508;49.386;8.370;2022-09-03T05:22:18;2.90;;;1.67;;
31990;SDS011;18508;49.386;8.370;2022-09-03T05:24:48;3.40;;;1.63;;
31990;SDS011;18508;49.386;8.370;2022-09-03T05:27:17;2.88;;;1.58;;
31990;SDS011;18508;49.386;8.370;2022-09-03T05:29:46;3.28;;;1.60;;
31990;SDS011;18508;49.386;8.370;2022-09-03T05:32:17;2.55;;;1.45;;
31990;SDS011;18508;49.386;8.370;2022-09-03T05:34:47;6.75;;;1.98;;
31990;SDS011;18508;49.386;8.370;2022-09-03T05:37:19;5.57;;;1.42;;
31990;SDS011;18508;49.386;8.370;2022-09-03T05:39:47;4.43;;;1.73;;
31990;SDS011;18508;49.386;8.370;2022-09-03T05:42:20;3.33;;;1.60;;
31990;SDS011;18508;49.386;8.370;2022-09-03T05:44:49;3.03;;;1.70;;
31990;SDS011;18508;49.386;8.370;2022-09-03T05:47:18;3.55;;;1.67;;
31990;SDS011;18508;49.386;8.370;2022-09-03T05:49:47;5.15;;;1.60;;
31990;SDS011;18508;49.386;8.370;2022-09-03T05:52:16;5.45;;;1.73;;
31990;SDS011;18508;49.386;8.370;2022-09-03T05:54:49;5.50;;;1.83;;
31990;SDS011;18508;49.386;8.370;2022-09-03T05:57:17;6.80;;;1.70;;
31990;SDS011;18508;49.386;8.370;2022-09-03T05:59:45;4.60;;;1.63;;
31990;SDS011;18508;49.386;8.370;2022-09-03T06:02:14;3.25;;;1.80;;
31990;SDS011;18508;49.386;8.370;2022-09-03T06:04:48;4.78;;;1.73;;
31990;SDS011;18508;49.386;8.370;2022-09-03T06:07:20;3.70;;;1.77;;
31990;SDS011;18508;49.386;8.370;2022-09-03T06:09:51;4.78;;;1.88;;
31990;SDS011;18508;49.386;8.370;2022-09-03T06:12:20;5.05;;;1.98;;
31990;SDS011;18508;49.386;8.370;2022-09-03T06:14:50;6.10;;;2.20;;
31990;SDS011;18508;49.386;8.370;2022-09-03T06:17:21;3.83;;;2.40;;
31990;SDS011;18508;49.386;8.370;2022-09-03T06:19:52;4.78;;;2.20;;
31990;SDS011;18508;49.386;8.370;2022-09-03T06:22:23;4.75;;;2.80;;
31990;SDS011;18508;49.386;8.370;2022-09-03T06:24:54;9.25;;;3.47;;
31990;SDS011;18508;49.386;8.370;2022-09-03T06:27:22;6.28;;;2.92;;
31990;SDS011;18508;49.386;8.370;2022-09-03T06:29:56;4.18;;;3.10;;
31990;SDS011;18508;49.386;8.370;2022-09-03T06:32:25;3.97;;;2.95;;
31990;SDS011;18508;49.386;8.370;2022-09-03T06:34:57;5.80;;;2.60;;
31990;SDS011;18508;49.386;8.370;2022-09-03T06:37:27;5.43;;;2.88;;
31990;SDS011;18508;49.386;8.370;2022-09-03T06:39:55;5.75;;;3.15;;
31990;SDS011;18508;49.386;8.370;2022-09-03T06:42:24;5.45;;;3.20;;
31990;SDS011;18508;49.386;8.370;2022-09-03T06:44:54;15.13;;;3.67;;
31990;SDS011;18508;49.386;8.370;2022-09-03T06:47:22;6.28;;;3.45;;
31990;SDS011;18508;49.386;8.370;2022-09-03T06:49:50;4.43;;;3.30;;
31990;SDS011;18508;49.386;8.370;2022-09-03T06:52:23;5.88;;;3.47;;
31990;SDS011;18508;49.386;8.370;2022-09-03T06:54:53;5.75;;;3.70;;
31990;SDS011;18508;49.386;8.370;2022-09-03T06:57:22;7.72;;;4.20;;
31990;SDS011;18508;49.386;8.370;2022-09-03T06:59:50;5.32;;;3.95;;
31990;SDS011;18508;49.386;8.370;2022-09-03T07:02:19;9.88;;;4.35;;
31990;SDS011;18508;49.386;8.370;2022-09-03T07:04:49;8.80;;;4.45;;
31990;SDS011;18508;49.386;8.370;2022-09-03T07:09:50;12.52;;;4.85;;
31990;SDS011;18508;49.386;8.370;2022-09-03T07:12:19;11.50;;;5.22;;
31990;SDS011;18508;49.386;8.370;2022-09-03T07:14:47;7.28;;;4.82;;
31990;SDS011;18508;49.386;8.370;2022-09-03T07:17:18;7.40;;;5.22;;
31990;SDS011;18508;49.386;8.370;2022-09-03T07:19:46;19.08;;;5.20;;
31990;SDS011;18508;49.386;8.370;2022-09-03T07:22:14;6.00;;;4.68;;
31990;SDS011;18508;49.386;8.370;2022-09-03T07:24:45;7.20;;;4.65;;
31990;SDS011;18508;49.386;8.370;2022-09-03T07:27:13;9.50;;;5.55;;
31990;SDS011;18508;49.386;8.370;2022-09-03T07:29:43;7.00;;;5.18;;
31990;SDS011;18508;49.386;8.370;2022-09-03T07:32:11;9.13;;;5.65;;
31990;SDS011;18508;49.386;8.370;2022-09-03T07:34:39;8.10;;;5.78;;
31990;SDS011;18508;49.386;8.370;2022-09-03T07:37:11;11.70;;;6.18;;
31990;SDS011;18508;49.386;8.370;2022-09-03T07:39:39;7.57;;;6.00;;
31990;SDS011;18508;49.386;8.370;2022-09-03T07:42:08;8.50;;;6.50;;
31990;SDS011;18508;49.386;8.370;2022-09-03T07:44:36;10.55;;;6.55;;
31990;SDS011;18508;49.386;8.370;2022-09-03T07:47:06;13.23;;;7.70;;
31990;SDS011;18508;49.386;8.370;2022-09-03T07:49:35;9.55;;;7.10;;
31990;SDS011;18508;49.386;8.370;2022-09-03T07:52:03;10.18;;;7.88;;
31990;SDS011;18508;49.386;8.370;2022-09-03T07:54:37;9.73;;;7.38;;
31990;SDS011;18508;49.386;8.370;2022-09-03T07:57:06;9.75;;;7.28;;
31990;SDS011;18508;49.386;8.370;2022-09-03T07:59:35;9.65;;;7.43;;
31990;SDS011;18508;49.386;8.370;2022-09-03T08:02:08;11.43;;;7.15;;
31990;SDS011;18508;49.386;8.370;2022-09-03T08:04:36;10.43;;;7.20;;
31990;SDS011;18508;49.386;8.370;2022-09-03T08:07:07;11.55;;;7.15;;
31990;SDS011;18508;49.386;8.370;2022-09-03T08:09:35;11.60;;;7.43;;
31990;SDS011;18508;49.386;8.370;2022-09-03T08:12:05;10.05;;;7.18;;
31990;SDS011;18508;49.386;8.370;2022-09-03T08:14:34;11.68;;;7.10;;
31990;SDS011;18508;49.386;8.370;2022-09-03T08:17:02;12.43;;;8.80;;
31990;SDS011;18508;49.386;8.370;2022-09-03T08:19:35;10.50;;;7.75;;
31990;SDS011;18508;49.386;8.370;2022-09-03T08:22:05;10.93;;;7.10;;
31990;SDS011;18508;49.386;8.370;2022-09-03T08:24:34;9.75;;;6.63;;
31990;SDS011;18508;49.386;8.370;2022-09-03T08:27:04;8.90;;;6.63;;
31990;SDS011;18508;49.386;8.370;2022-09-03T08:29:32;10.82;;;6.40;;
31990;SDS011;18508;49.386;8.370;2022-09-03T08:32:04;10.30;;;7.40;;
31990;SDS011;18508;49.386;8.370;2022-09-03T08:34:32;13.10;;;8.13;;
31990;SDS011;18508;49.386;8.370;2022-09-03T08:37:02;13.15;;;7.97;;
31990;SDS011;18508;49.386;8.370;2022-09-03T08:39:30;14.55;;;8.65;;
31990;SDS011;18508;49.386;8.370;2022-09-03T08:42:03;9.73;;;7.40;;
31990;SDS011;18508;49.386;8.370;2022-09-03T08:44:46;10.40;;;7.70;;
31990;SDS011;18508;49.386;8.370;2022-09-03T08:47:21;10.15;;;7.30;;
31990;SDS011;18508;49.386;8.370;2022-09-03T08:49:53;11.85;;;8.30;;
31990;SDS011;18508;49.386;8.370;2022-09-03T08:52:36;9.68;;;6.82;;
31990;SDS011;18508;49.386;8.370;2022-09-03T08:55:16;11.52;;;7.65;;
31990;SDS011;18508;49.386;8.370;2022-09-03T08:57:50;14.02;;;7.82;;
31990;SDS011;18508;49.386;8.370;2022-09-03T09:00:24;9.75;;;7.07;;
31990;SDS011;18508;49.386;8.370;2022-09-03T09:03:06;9.60;;;7.50;;
31990;SDS011;18508;49.386;8.370;2022-09-03T09:05:59;10.45;;;7.28;;
31990;SDS011;18508;49.386;8.370;2022-09-03T09:08:40;12.10;;;7.85;;
31990;SDS011;18508;49.386;8.370;2022-09-03T09:11:19;11.82;;;7.22;;
31990;SDS011;18508;49.386;8.370;2022-09-03T09:13:57;9.27;;;6.85;;
31990;SDS011;18508;49.386;8.370;2022-09-03T09:16:31;11.32;;;6.78;;
31990;SDS011;18508;49.386;8.370;2022-09-03T09:19:08;8.70;;;6.68;;
31990;SDS011;18508;49.386;8.370;2022-09-03T09:21:50;9.32;;;6.30;;
31990;SDS011;18508;49.386;8.370;2022-09-03T09:24:24;10.50;;;5.85;;
31990;SDS011;18508;49.386;8.370;2022-09-03T09:26:55;8.57;;;5.60;;
31990;SDS011;18508;49.386;8.370;2022-09-03T09:29:26;7.13;;;5.53;;
31990;SDS011;18508;49.386;8.370;2022-09-03T09:31:58;7.30;;;4.95;;
31990;SDS011;18508;49.386;8.370;2022-09-03T09:34:27;7.68;;;4.85;;
31990;SDS011;18508;49.386;8.370;2022-09-03T09:37:02;8.70;;;5.10;;
31990;SDS011;18508;49.386;8.370;2022-09-03T09:39:33;8.23;;;5.45;;
31990;SDS011;18508;49.386;8.370;2022-09-03T09:42:05;6.88;;;4.93;;
31990;SDS011;18508;49.386;8.370;2022-09-03T09:44:35;8.43;;;4.70;;
31990;SDS011;18508;49.386;8.370;2022-09-03T09:47:05;7.75;;;5.20;;
31990;SDS011;18508;49.386;8.370;2022-09-03T09:49:37;9.20;;;4.82;;
31990;SDS011;18508;49.386;8.370;2022-09-03T09:52:17;6.97;;;4.85;;
31990;SDS011;18508;49.386;8.370;2022-09-03T10:00:19;6.72;;;4.15;;
31990;SDS011;18508;49.386;8.370;2022-09-03T10:02:50;5.63;;;4.63;;
31990;SDS011;18508;49.386;8.370;2022-09-03T10:05:20;6.82;;;4.72;;
31990;SDS011;18508;49.386;8.370;2022-09-03T10:07:54;6.30;;;4.72;;
31990;SDS011;18508;49.386;8.370;2022-09-03T10:10:31;5.97;;;4.50;;
31990;SDS011;18508;49.386;8.370;2022-09-03T10:13:05;6.30;;;4.43;;
31990;SDS011;18508;49.386;8.370;2022-09-03T10:15:44;10.32;;;5.10;;
31990;SDS011;18508;49.386;8.370;2022-09-03T10:18:18;9.18;;;5.65;;
31990;SDS011;18508;49.386;8.370;2022-09-03T10:20:57;7.53;;;5.25;;
31990;SDS011;18508;49.386;8.370;2022-09-03T10:23:34;6.68;;;5.35;;
31990;SDS011;18508;49.386;8.370;2022-09-03T10:26:15;9.23;;;5.32;;
31990;SDS011;18508;49.386;8.370;2022-09-03T10:28:59;8.02;;;5.63;;
31990;SDS011;18508;49.386;8.370;2022-09-03T10:31:35;9.00;;;6.03;;
31990;SDS011;18508;49.386;8.370;2022-09-03T10:34:13;7.10;;;6.05;;
31990;SDS011;18508;49.386;8.370;2022-09-03T10:36:52;6.55;;;4.68;;
31990;SDS011;18508;49.386;8.370;2022-09-03T10:39:28;6.38;;;4.95;;
31990;SDS011;18508;49.386;8.370;2022-09-03T10:42:17;7.53;;;5.75;;
31990;SDS011;18508;49.386;8.370;2022-09-03T10:45:02;6.47;;;5.55;;
31990;SDS011;18508;49.386;8.370;2022-09-03T10:47:50;7.25;;;5.38;;
31990;SDS011;18508;49.386;8.370;2022-09-03T10:50:40;8.95;;;5.38;;
31990;SDS011;18508;49.386;8.370;2022-09-03T10:53:20;7.22;;;5.68;;
31990;SDS011;18508;49.386;8.370;2022-09-03T10:56:10;7.55;;;5.80;;
31990;SDS011;18508;49.386;8.370;2022-09-03T10:58:49;6.82;;;5.47;;
31990;SDS011;18508;49.386;8.370;2022-09-03T11:01:30;9.02;;;6.20;;
31990;SDS011;18508;49.386;8.370;2022-09-03T11:04:15;10.02;;;5.97;;
31990;SDS011;18508;49.386;8.370;2022-09-03T11:06:50;7.45;;;5.20;;
31990;SDS011;18508;49.386;8.370;2022-09-03T11:09:21;8.05;;;5.55;;
31990;SDS011;18508;49.386;8.370;2022-09-03T11:11:54;7.75;;;5.00;;
31990;SDS011;18508;49.386;8.370;2022-09-03T11:14:30;6.88;;;5.20;;
31990;SDS011;18508;49.386;8.370;2022-09-03T11:17:06;5.10;;;4.18;;
31990;SDS011;18508;49.386;8.370;2022-09-03T11:19:41;7.40;;;5.20;;
31990;SDS011;18508;49.386;8.370;2022-09-03T11:22:16;7.07;;;5.07;;
31990;SDS011;18508;49.386;8.370;2022-09-03T11:24:48;5.80;;;4.45;;
31990;SDS011;18508;49.386;8.370;2022-09-03T11:27:23;6.10;;;4.13;;
31990;SDS011;18508;49.386;8.370;2022-09-03T11:30:04;6.18;;;4.72;;
31990;SDS011;18508;49.386;8.370;2022-09-03T11:32:40;4.95;;;3.83;;
31990;SDS011;18508;49.386;8.370;2022-09-03T11:35:25;3.95;;;3.22;;
31990;SDS011;18508;49.386;8.370;2022-09-03T11:37:57;4.43;;;2.85;;
31990;SDS011;18508;49.386;8.370;2022-09-03T11:40:28;3.85;;;2.55;;
31990;SDS011;18508;49.386;8.370;2022-09-03T11:43:06;3.97;;;3.05;;
31990;SDS011;18508;49.386;8.370;2022-09-03T11:45:41;4.18;;;3.50;;
31990;SDS011;18508;49.386;8.370;2022-09-03T11:48:16;4.28;;;3.55;;
31990;SDS011;18508;49.386;8.370;2022-09-03T11:50:53;4.47;;;3.15;;
31990;SDS011;18508;49.386;8.370;2022-09-03T11:53:23;5.00;;;2.92;;
31990;SDS011;18508;49.386;8.370;2022-09-03T11:55:57;2.75;;;2.13;;
31990;SDS011;18508;49.386;8.370;2022-09-03T11:58:28;3.53;;;2.38;;
31990;SDS011;18508;49.386;8.370;2022-09-03T12:00:59;3.70;;;2.60;;
31990;SDS011;18508;49.386;8.370;2022-09-03T12:03:35;4.82;;;2.65;;
31990;SDS011;18508;49.386;8.370;2022-09-03T12:09:24;3.60;;;2.28;;
31990;SDS011;18508;49.386;8.370;2022-09-03T12:12:17;3.85;;;2.80;;
31990;SDS011;18508;49.386;8.370;2022-09-03T12:15:01;3.50;;;2.40;;
31990;SDS011;18508;49.386;8.370;2022-09-03T12:17:34;2.63;;;2.10;;
31990;SDS011;18508;49.386;8.370;2022-09-03T12:20:11;3.65;;;2.75;;
31990;SDS011;18508;49.386;8.370;2022-09-03T12:22:41;4.05;;;2.40;;
31990;SDS011;18508;49.386;8.370;2022-09-03T12:25:11;3.30;;;2.05;;
31990;SDS011;18508;49.386;8.370;2022-09-03T12:27:41;3.80;;;2.85;;
31990;SDS011;18508;49.386;8.370;2022-09-03T12:30:13;3.50;;;2.60;;
31990;SDS011;18508;49.386;8.370;2022-09-03T12:32:43;3.35;;;2.80;;
31990;SDS011;18508;49.386;8.370;2022-09-03T12:35:13;4.68;;;3.13;;
31990;SDS011;18508;49.386;8.370;2022-09-03T12:38:04;4.85;;;3.03;;
31990;SDS011;18508;49.386;8.370;2022-09-03T12:40:39;4.32;;;2.63;;
31990;SDS011;18508;49.386;8.370;2022-09-03T12:43:29;4.63;;;2.97;;
31990;SDS011;18508;49.386;8.370;2022-09-03T12:46:12;3.35;;;2.83;;
31990;SDS011;18508;49.386;8.370;2022-09-03T12:48:45;3.40;;;2.80;;
31990;SDS011;18508;49.386;8.370;2022-09-03T12:51:41;3.67;;;2.85;;
31990;SDS011;18508;49.386;8.370;2022-09-03T12:54:18;5.45;;;3.03;;
31990;SDS011;18508;49.386;8.370;2022-09-03T12:56:48;4.43;;;3.22;;
31990;SDS011;18508;49.386;8.370;2022-09-03T12:59:22;3.70;;;3.20;;
31990;SDS011;18508;49.386;8.370;2022-09-03T13:01:53;3.70;;;2.80;;
31990;SDS011;18508;49.386;8.370;2022-09-03T13:04:25;3.78;;;3.05;;
31990;SDS011;18508;49.386;8.370;2022-09-03T13:06:58;4.13;;;3.40;;
31990;SDS011;18508;49.386;8.370;2022-09-03T13:09:32;4.78;;;3.60;;
31990;SDS011;18508;49.386;8.370;2022-09-03T13:12:04;4.15;;;3.70;;
31990;SDS011;18508;49.386;8.370;2022-09-03T13:14:40;4.35;;;3.28;;
31990;SDS011;18508;49.386;8.370;2022-09-03T13:17:26;5.07;;;3.70;;
31990;SDS011;18508;49.386;8.370;2022-09-03T13:23:12;6.60;;;4.20;;
31990;SDS011;18508;49.386;8.370;2022-09-03T13:25:54;4.38;;;3.97;;
31990;SDS011;18508;49.386;8.370;2022-09-03T13:28:35;6.45;;;4.00;;
31990;SDS011;18508;49.386;8.370;2022-09-03T13:31:17;5.90;;;3.83;;
31990;SDS011;18508;49.386;8.370;2022-09-03T13:33:53;6.10;;;4.28;;
31990;SDS011;18508;49.386;8.370;2022-09-03T13:36:27;5.53;;;4.30;;
31990;SDS011;18508;49.386;8.370;2022-09-03T13:39:04;6.07;;;4.03;;
31990;SDS011;18508;49.386;8.370;2022-09-03T13:41:40;4.97;;;3.97;;
31990;SDS011;18508;49.386;8.370;2022-09-03T13:44:16;5.18;;;4.00;;
31990;SDS011;18508;49.386;8.370;2022-09-03T13:46:50;5.63;;;3.95;;
31990;SDS011;18508;49.386;8.370;2022-09-03T13:49:26;3.95;;;3.40;;
31990;SDS011;18508;49.386;8.370;2022-09-03T13:52:24;3.97;;;3.33;;
31990;SDS011;18508;49.386;8.370;2022-09-03T13:54:59;5.93;;;3.60;;
31990;SDS011;18508;49.386;8.370;2022-09-03T13:57:36;4.78;;;3.88;;
31990;SDS011;18508;49.386;8.370;2022-09-03T14:00:21;4.20;;;3.47;;
31990;SDS011;18508;49.386;8.370;2022-09-03T14:02:55;4.70;;;3.50;;
31990;SDS011;18508;49.386;8.370;2022-09-03T14:05:35;3.63;;;3.00;;
31990;SDS011;18508;49.386;8.370;2022-09-03T14:08:19;3.58;;;3.05;;
31990;SDS011;18508;49.386;8.370;2022-09-03T14:10:57;5.63;;;3.80;;
31990;SDS011;18508;49.386;8.370;2022-09-03T14:13:37;4.82;;;3.78;;
31990;SDS011;18508;49.386;8.370;2022-09-03T14:16:15;4.45;;;3.72;;
31990;SDS011;18508;49.386;8.370;2022-09-03T14:18:54;7.05;;;3.78;;
31990;SDS011;18508;49.386;8.370;2022-09-03T14:21:28;4.13;;;3.72;;
31990;SDS011;18508;49.386;8.370;2022-09-03T14:24:03;6.18;;;4.22;;
31990;SDS011;18508;49.386;8.370;2022-09-03T14:26:47;5.93;;;3.72;;
31990;SDS011;18508;49.386;8.370;2022-09-03T14:29:20;4.70;;;3.55;;
31990;SDS011;18508;49.386;8.370;2022-09-03T14:31:58;5.75;;;3.47;;
31990;SDS011;18508;49.386;8.370;2022-09-03T14:34:47;3.90;;;3.50;;
31990;SDS011;18508;49.386;8.370;2022-09-03T14:37:29;5.32;;;3.95;;
31990;SDS011;18508;49.386;8.370;2022-09-03T14:40:20;6.70;;;3.92;;
31990;SDS011;18508;49.386;8.370;2022-09-03T14:42:59;4.65;;;3.67;;
31990;SDS011;18508;49.386;8.370;2022-09-03T14:48:37;6.63;;;3.83;;
31990;SDS011;18508;49.386;8.370;2022-09-03T14:51:30;4.65;;;3.90;;
31990;SDS011;18508;49.386;8.370;2022-09-03T14:54:15;5.97;;;5.30;;
31990;SDS011;18508;49.386;8.370;2022-09-03T14:57:00;6.72;;;4.40;;
31990;SDS011;18508;49.386;8.370;2022-09-03T14:59:58;8.77;;;5.22;;
31990;SDS011;18508;49.386;8.370;2022-09-03T15:06:05;6.47;;;5.07;;
31990;SDS011;18508;49.386;8.370;2022-09-03T15:08:43;10.77;;;5.50;;
31990;SDS011;18508;49.386;8.370;2022-09-03T15:11:23;7.47;;;6.38;;
31990;SDS011;18508;49.386;8.370;2022-09-03T15:13:59;7.32;;;5.68;;
31990;SDS011;18508;49.386;8.370;2022-09-03T15:16:42;6.53;;;4.57;;
31990;SDS011;18508;49.386;8.370;2022-09-03T15:19:54;6.00;;;3.63;;
31990;SDS011;18508;49.386;8.370;2022-09-03T15:22:35;5.88;;;3.55;;
31990;SDS011;18508;49.386;8.370;2022-09-03T15:25:17;6.75;;;3.60;;
31990;SDS011;18508;49.386;8.370;2022-09-03T15:27:56;5.50;;;3.92;;
31990;SDS011;18508;49.386;8.370;2022-09-03T15:30:40;5.20;;;3.50;;
31990;SDS011;18508;49.386;8.370;2022-09-03T15:33:18;5.57;;;3.78;;
31990;SDS011;18508;49.386;8.370;2022-09-03T15:35:59;5.57;;;3.63;;
31990;SDS011;18508;49.386;8.370;2022-09-03T15:38:43;7.70;;;5.60;;
31990;SDS011;18508;49.386;8.370;2022-09-03T15:41:20;7.35;;;6.00;;
31990;SDS011;18508;49.386;8.370;2022-09-03T15:43:58;9.52;;;7.32;;
31990;SDS011;18508;49.386;8.370;2022-09-03T15:46:30;6.78;;;4.60;;
31990;SDS011;18508;49.386;8.370;2022-09-03T15:49:05;6.28;;;4.85;;
31990;SDS011;18508;49.386;8.370;2022-09-03T15:51:41;9.63;;;6.65;;
31990;SDS011;18508;49.386;8.370;2022-09-03T15:54:29;8.68;;;6.93;;
31990;SDS011;18508;49.386;8.370;2022-09-03T15:57:02;10.40;;;5.88;;
31990;SDS011;18508;49.386;8.370;2022-09-03T15:59:36;7.35;;;5.93;;
31990;SDS011;18508;49.386;8.370;2022-09-03T16:02:11;7.45;;;6.40;;